sensor_id;sensor_type;location;lat;lon;timestamp;pressure;altitude;pressure_sealevel;temperature;humidity
5905;BME280;2978;42.012;24.880;2023-08-17T00:02:00;66104.38;;;-143.09;100.00
5905;BME280;2978;42.012;24.880;2023-08-17T00:04:25;66104.38;;;-143.09;100.00
5905;BME280;2978;42.012;24.880;2023-08-17T00:06:51;66104.38;;;-143.09;100.00
5905;BME280;2978;42.012;24.880;2023-08-17T00:09:16;66104.38;;;-143.09;100.00
5905;BME280;2978;42.012;24.880;2023-08-17T00:11:41;66104.38;;;-143.09;100.00
5905;BME280;2978;42.012;24.880;2023-08-17T00:14:07;66104.38;;;-143.09;100.00
5905;BME280;2978;42.012;24.880;2023-08-17T00:16:32;66104.38;;;-143.09;100.00
5905;BME280;2978;42.012;24.880;2023-08-17T00:18:58;66104.38;;;-143.09;100.00
5905;BME280;2978;42.012;24.880;2023-08-17T00:21:23;66104.38;;;-143.09;100.00
5905;BME280;2978;42.012;24.880;2023-08-17T00:23:49;66104.38;;;-143.09;100.00
5905;BME280;2978;42.012;24.880;2023-08-17T00:26:15;66104.38;;;-143.09;100.00
5905;BME280;2978;42.012;24.880;2023-08-17T00:28:40;66104.38;;;-143.09;100.00
5905;BME280;2978;42.012;24.880;2023-08-17T00:31:06;66104.38;;;-143.09;100.00
5905;BME280;2978;42.012;24.880;2023-08-17T00:33:31;66104.38;;;-143.09;100.00
5905;BME280;2978;42.012;24.880;2023-08-17T00:35:57;66104.38;;;-143.09;100.00
5905;BME280;2978;42.012;24.880;2023-08-17T00:38:22;66104.38;;;-143.09;100.00
5905;BME280;2978;42.012;24.880;2023-08-17T00:40:48;66104.38;;;-143.09;100.00
5905;BME280;2978;42.012;24.880;2023-08-17T00:43:13;66104.38;;;-143.09;100.00
5905;BME280;2978;42.012;24.880;2023-08-17T00:45:40;66104.38;;;-143.09;100.00
5905;BME280;2978;42.012;24.880;2023-08-17T00:48:06;66104.38;;;-143.09;100.00
5905;BME280;2978;42.012;24.880;2023-08-17T00:50:34;66104.38;;;-143.09;100.00
5905;BME280;2978;42.012;24.880;2023-08-17T00:53:01;66104.38;;;-143.09;100.00
5905;BME280;2978;42.012;24.880;2023-08-17T00:55:27;66104.38;;;-143.09;100.00
5905;BME280;2978;42.012;24.880;2023-08-17T00:57:53;66104.38;;;-143.09;100.00
5905;BME280;2978;42.012;24.880;2023-08-17T01:00:21;66104.38;;;-143.09;100.00
5905;BME280;2978;42.012;24.880;2023-08-17T01:02:47;66104.38;;;-143.09;100.00
5905;BME280;2978;42.012;24.880;2023-08-17T01:05:12;66104.38;;;-143.09;100.00
5905;BME280;2978;42.012;24.880;2023-08-17T01:07:38;66104.38;;;-143.09;100.00
5905;BME280;2978;42.012;24.880;2023-08-17T01:10:06;66104.38;;;-143.09;100.00
5905;BME280;2978;42.012;24.880;2023-08-17T01:12:42;66104.38;;;-143.09;100.00
5905;BME280;2978;42.012;24.880;2023-08-17T01:15:30;66104.38;;;-143.09;100.00
5905;BME280;2978;42.012;24.880;2023-08-17T01:18:04;66104.38;;;-143.09;100.00
5905;BME280;2978;42.012;24.880;2023-08-17T01:20:32;66104.38;;;-143.09;100.00
5905;BME280;2978;42.012;24.880;2023-08-17T01:23:05;66104.38;;;-143.09;100.00
5905;BME280;2978;42.012;24.880;2023-08-17T01:25:31;66104.38;;;-143.09;100.00
5905;BME280;2978;42.012;24.880;2023-08-17T01:28:04;66104.38;;;-143.09;100.00
5905;BME280;2978;42.012;24.880;2023-08-17T01:30:55;66104.38;;;-143.09;100.00
5905;BME280;2978;42.012;24.880;2023-08-17T01:33:28;66104.38;;;-143.09;100.00
5905;BME280;2978;42.012;24.880;2023-08-17T01:38:44;66104.38;;;-143.09;100.00
5905;BME280;2978;42.012;24.880;2023-08-17T01:41:10;66104.38;;;-143.09;100.00
5905;BME280;2978;42.012;24.880;2023-08-17T01:43:44;66104.38;;;-143.09;100.00
5905;BME280;2978;42.012;24.880;2023-08-17T01:46:14;66104.38;;;-143.09;100.00
5905;BME280;2978;42.012;24.880;2023-08-17T01:48:43;66104.38;;;-143.09;100.00
5905;BME280;2978;42.012;24.880;2023-08-17T01:51:19;66104.38;;;-143.09;100.00
5905;BME280;2978;42.012;24.880;2023-08-17T01:53:48;66104.38;;;-143.09;100.00
5905;BME280;2978;42.012;24.880;2023-08-17T01:56:13;66104.38;;;-143.09;100.00
5905;BME280;2978;42.012;24.880;2023-08-17T01:58:39;66104.38;;;-143.09;100.00
5905;BME280;2978;42.012;24.880;2023-08-17T02:01:05;66104.38;;;-143.09;100.00
5905;BME280;2978;42.012;24.880;2023-08-17T02:03:30;66104.38;;;-143.09;100.00
5905;BME280;2978;42.012;24.880;2023-08-17T02:05:57;66104.38;;;-143.09;100.00
5905;BME280;2978;42.012;24.880;2023-08-17T02:08:22;66104.38;;;-143.09;100.00
5905;BME280;2978;42.012;24.880;2023-08-17T02:10:47;66104.38;;;-143.09;100.00
5905;BME280;2978;42.012;24.880;2023-08-17T02:13:14;66104.38;;;-143.09;100.00
5905;BME280;2978;42.012;24.880;2023-08-17T02:15:39;66104.38;;;-143.09;100.00
5905;BME280;2978;42.012;24.880;2023-08-17T02:18:05;66104.38;;;-143.09;100.00
5905;BME280;2978;42.012;24.880;2023-08-17T02:20:30;66104.38;;;-143.09;100.00
5905;BME280;2978;42.012;24.880;2023-08-17T02:22:56;66104.38;;;-143.09;100.00
5905;BME280;2978;42.012;24.880;2023-08-17T02:25:21;66104.38;;;-143.09;100.00
5905;BME280;2978;42.012;24.880;2023-08-17T02:27:47;66104.38;;;-143.09;100.00
5905;BME280;2978;42.012;24.880;2023-08-17T02:30:12;66104.38;;;-143.09;100.00
5905;BME280;2978;42.012;24.880;2023-08-17T02:32:38;66104.38;;;-143.09;100.00
5905;BME280;2978;42.012;24.880;2023-08-17T02:35:04;66104.38;;;-143.09;100.00
5905;BME280;2978;42.012;24.880;2023-08-17T02:37:29;66104.38;;;-143.09;100.00
5905;BME280;2978;42.012;24.880;2023-08-17T02:39:55;66104.38;;;-143.09;100.00
5905;BME280;2978;42.012;24.880;2023-08-17T02:42:20;66104.38;;;-143.09;100.00
5905;BME280;2978;42.012;24.880;2023-08-17T02:44:46;66104.38;;;-143.09;100.00
5905;BME280;2978;42.012;24.880;2023-08-17T02:47:11;66104.38;;;-143.09;100.00
5905;BME280;2978;42.012;24.880;2023-08-17T02:49:37;66104.38;;;-143.09;100.00
5905;BME280;2978;42.012;24.880;2023-08-17T02:52:02;66104.38;;;-143.09;100.00
5905;BME280;2978;42.012;24.880;2023-08-17T02:54:28;66104.38;;;-143.09;100.00
5905;BME280;2978;42.012;24.880;2023-08-17T02:56:53;66104.38;;;-143.09;100.00
5905;BME280;2978;42.012;24.880;2023-08-17T02:59:18;66104.38;;;-143.09;100.00
5905;BME280;2978;42.012;24.880;2023-08-17T03:01:45;66104.38;;;-143.09;100.00
5905;BME280;2978;42.012;24.880;2023-08-17T03:04:10;66104.38;;;-143.09;100.00
5905;BME280;2978;42.012;24.880;2023-08-17T03:06:36;66104.38;;;-143.09;100.00
5905;BME280;2978;42.012;24.880;2023-08-17T03:09:01;66104.38;;;-143.09;100.00
5905;BME280;2978;42.012;24.880;2023-08-17T03:11:27;66104.38;;;-143.09;100.00
5905;BME280;2978;42.012;24.880;2023-08-17T03:13:52;66104.38;;;-143.09;100.00
5905;BME280;2978;42.012;24.880;2023-08-17T03:16:20;66104.38;;;-143.09;100.00
5905;BME280;2978;42.012;24.880;2023-08-17T03:18:46;66104.38;;;-143.09;100.00
5905;BME280;2978;42.012;24.880;2023-08-17T03:21:13;66104.38;;;-143.09;100.00
5905;BME280;2978;42.012;24.880;2023-08-17T03:23:39;66104.38;;;-143.09;100.00
5905;BME280;2978;42.012;24.880;2023-08-17T03:26:05;66104.38;;;-143.09;100.00
5905;BME280;2978;42.012;24.880;2023-08-17T03:28:30;66104.38;;;-143.09;100.00
5905;BME280;2978;42.012;24.880;2023-08-17T03:30:56;66104.38;;;-143.09;100.00
5905;BME280;2978;42.012;24.880;2023-08-17T03:33:21;66104.38;;;-143.09;100.00
5905;BME280;2978;42.012;24.880;2023-08-17T03:35:47;66104.38;;;-143.09;100.00
5905;BME280;2978;42.012;24.880;2023-08-17T03:38:12;66104.38;;;-143.09;100.00
5905;BME280;2978;42.012;24.880;2023-08-17T03:40:38;66104.38;;;-143.09;100.00
5905;BME280;2978;42.012;24.880;2023-08-17T03:43:04;66104.38;;;-143.09;100.00
5905;BME280;2978;42.012;24.880;2023-08-17T03:45:30;66104.38;;;-143.09;100.00
5905;BME280;2978;42.012;24.880;2023-08-17T03:47:56;66104.38;;;-143.09;100.00
5905;BME280;2978;42.012;24.880;2023-08-17T03:50:21;66104.38;;;-143.09;100.00
5905;BME280;2978;42.012;24.880;2023-08-17T03:52:47;66104.38;;;-143.09;100.00
5905;BME280;2978;42.012;24.880;2023-08-17T03:55:12;66104.38;;;-143.09;100.00
5905;BME280;2978;42.012;24.880;2023-08-17T03:57:38;66104.38;;;-143.09;100.00
5905;BME280;2978;42.012;24.880;2023-08-17T04:00:03;66104.38;;;-143.09;100.00
5905;BME280;2978;42.012;24.880;2023-08-17T04:02:31;66104.38;;;-143.09;100.00
5905;BME280;2978;42.012;24.880;2023-08-17T04:04:56;66104.38;;;-143.09;100.00
5905;BME280;2978;42.012;24.880;2023-08-17T04:07:22;66104.38;;;-143.09;100.00
5905;BME280;2978;42.012;24.880;2023-08-17T04:09:48;66104.38;;;-143.09;100.00
5905;BME280;2978;42.012;24.880;2023-08-17T04:12:14;66104.38;;;-143.09;100.00
5905;BME280;2978;42.012;24.880;2023-08-17T04:14:39;66104.38;;;-143.09;100.00
5905;BME280;2978;42.012;24.880;2023-08-17T04:17:05;66104.38;;;-143.09;100.00
5905;BME280;2978;42.012;24.880;2023-08-17T04:19:30;66104.38;;;-143.09;100.00
5905;BME280;2978;42.012;24.880;2023-08-17T04:21:56;66104.38;;;-143.09;100.00
5905;BME280;2978;42.012;24.880;2023-08-17T04:24:21;66104.38;;;-143.09;100.00
5905;BME280;2978;42.012;24.880;2023-08-17T04:26:46;66104.38;;;-143.09;100.00
5905;BME280;2978;42.012;24.880;2023-08-17T04:29:12;66104.38;;;-143.09;100.00
5905;BME280;2978;42.012;24.880;2023-08-17T04:31:38;66104.38;;;-143.09;100.00
5905;BME280;2978;42.012;24.880;2023-08-17T04:34:04;66104.38;;;-143.09;100.00
5905;BME280;2978;42.012;24.880;2023-08-17T04:36:29;66104.38;;;-143.09;100.00
5905;BME280;2978;42.012;24.880;2023-08-17T04:38:55;66104.38;;;-143.09;100.00
5905;BME280;2978;42.012;24.880;2023-08-17T04:41:20;66104.38;;;-143.09;100.00
5905;BME280;2978;42.012;24.880;2023-08-17T04:43:46;66104.38;;;-143.09;100.00
5905;BME280;2978;42.012;24.880;2023-08-17T04:46:12;66104.38;;;-143.09;100.00
5905;BME280;2978;42.012;24.880;2023-08-17T04:48:37;99164.59;;;30.66;34.81
5905;BME280;2978;42.012;24.880;2023-08-17T04:51:03;98733.66;;;24.71;51.62
5905;BME280;2978;42.012;24.880;2023-08-17T04:53:28;98728.28;;;24.82;50.66
5905;BME280;2978;42.012;24.880;2023-08-17T04:55:53;98727.81;;;24.80;50.90
5905;BME280;2978;42.012;24.880;2023-08-17T04:58:19;98721.53;;;24.86;50.68
5905;BME280;2978;42.012;24.880;2023-08-17T05:00:44;98743.22;;;25.05;50.15
5905;BME280;2978;42.012;24.880;2023-08-17T05:03:10;98735.31;;;25.10;49.64
5905;BME280;2978;42.012;24.880;2023-08-17T05:05:35;98720.13;;;25.15;49.11
5905;BME280;2978;42.012;24.880;2023-08-17T05:08:02;98741.34;;;25.12;49.40
5905;BME280;2978;42.012;24.880;2023-08-17T05:10:28;98734.16;;;25.34;48.90
5905;BME280;2978;42.012;24.880;2023-08-17T05:12:53;98742.84;;;25.44;48.54
5905;BME280;2978;42.012;24.880;2023-08-17T05:15:20;98742.84;;;25.44;48.54
5905;BME280;2978;42.012;24.880;2023-08-17T05:17:45;98733.72;;;25.51;48.39
5905;BME280;2978;42.012;24.880;2023-08-17T05:20:11;98733.72;;;25.51;48.39
5905;BME280;2978;42.012;24.880;2023-08-17T05:22:38;98737.53;;;25.62;47.87
5905;BME280;2978;42.012;24.880;2023-08-17T05:25:03;98736.22;;;25.79;47.35
5905;BME280;2978;42.012;24.880;2023-08-17T05:27:29;66104.38;;;-143.09;100.00
5905;BME280;2978;42.012;24.880;2023-08-17T05:29:54;66104.38;;;-143.09;100.00
5905;BME280;2978;42.012;24.880;2023-08-17T05:32:20;66104.38;;;-143.09;100.00
5905;BME280;2978;42.012;24.880;2023-08-17T05:34:47;66104.38;;;-143.09;100.00
5905;BME280;2978;42.012;24.880;2023-08-17T05:37:12;66104.38;;;-143.09;100.00
5905;BME280;2978;42.012;24.880;2023-08-17T05:39:37;66104.38;;;-143.09;100.00
5905;BME280;2978;42.012;24.880;2023-08-17T05:42:04;66104.38;;;-143.09;100.00
5905;BME280;2978;42.012;24.880;2023-08-17T05:44:30;66104.38;;;-143.09;100.00
5905;BME280;2978;42.012;24.880;2023-08-17T05:46:55;66104.38;;;-143.09;100.00
5905;BME280;2978;42.012;24.880;2023-08-17T05:49:21;66104.38;;;-143.09;100.00
5905;BME280;2978;42.012;24.880;2023-08-17T05:51:46;66104.38;;;-143.09;100.00
5905;BME280;2978;42.012;24.880;2023-08-17T05:54:12;66104.38;;;-143.09;100.00
5905;BME280;2978;42.012;24.880;2023-08-17T05:56:37;66104.38;;;-143.09;100.00
5905;BME280;2978;42.012;24.880;2023-08-17T05:59:03;66104.38;;;-143.09;100.00
5905;BME280;2978;42.012;24.880;2023-08-17T06:01:28;66104.38;;;-143.09;100.00
5905;BME280;2978;42.012;24.880;2023-08-17T06:03:54;66104.38;;;-143.09;100.00
5905;BME280;2978;42.012;24.880;2023-08-17T06:06:19;66104.38;;;-143.09;100.00
5905;BME280;2978;42.012;24.880;2023-08-17T06:08:45;66104.38;;;-143.09;100.00
5905;BME280;2978;42.012;24.880;2023-08-17T06:11:10;66104.38;;;-143.09;100.00
5905;BME280;2978;42.012;24.880;2023-08-17T06:13:36;66104.38;;;-143.09;100.00
5905;BME280;2978;42.012;24.880;2023-08-17T06:16:02;66104.38;;;-143.09;100.00
5905;BME280;2978;42.012;24.880;2023-08-17T06:18:29;66104.38;;;-143.09;100.00
5905;BME280;2978;42.012;24.880;2023-08-17T06:20:54;66104.38;;;-143.09;100.00
5905;BME280;2978;42.012;24.880;2023-08-17T06:23:20;66104.38;;;-143.09;100.00
5905;BME280;2978;42.012;24.880;2023-08-17T06:25:46;66104.38;;;-143.09;100.00
5905;BME280;2978;42.012;24.880;2023-08-17T06:28:11;66104.38;;;-143.09;100.00
5905;BME280;2978;42.012;24.880;2023-08-17T06:30:36;66104.38;;;-143.09;100.00
5905;BME280;2978;42.012;24.880;2023-08-17T06:33:02;66104.38;;;-143.09;100.00
5905;BME280;2978;42.012;24.880;2023-08-17T06:35:27;66104.38;;;-143.09;100.00
5905;BME280;2978;42.012;24.880;2023-08-17T06:37:53;66104.38;;;-143.09;100.00
5905;BME280;2978;42.012;24.880;2023-08-17T06:40:21;66104.38;;;-143.09;100.00
5905;BME280;2978;42.012;24.880;2023-08-17T06:42:47;66104.38;;;-143.09;100.00
5905;BME280;2978;42.012;24.880;2023-08-17T06:45:12;66104.38;;;-143.09;100.00
5905;BME280;2978;42.012;24.880;2023-08-17T06:47:38;66104.38;;;-143.09;100.00
5905;BME280;2978;42.012;24.880;2023-08-17T06:50:03;66104.38;;;-143.09;100.00
5905;BME280;2978;42.012;24.880;2023-08-17T06:52:29;66104.38;;;-143.09;100.00
5905;BME280;2978;42.012;24.880;2023-08-17T06:54:54;66104.38;;;-143.09;100.00
5905;BME280;2978;42.012;24.880;2023-08-17T06:57:20;66104.38;;;-143.09;100.00
5905;BME280;2978;42.012;24.880;2023-08-17T06:59:47;66104.38;;;-143.09;100.00
5905;BME280;2978;42.012;24.880;2023-08-17T07:02:12;66104.38;;;-143.09;100.00
5905;BME280;2978;42.012;24.880;2023-08-17T07:04:38;66104.38;;;-143.09;100.00
5905;BME280;2978;42.012;24.880;2023-08-17T07:07:03;66104.38;;;-143.09;100.00
5905;BME280;2978;42.012;24.880;2023-08-17T07:09:28;66104.38;;;-143.09;100.00
5905;BME280;2978;42.012;24.880;2023-08-17T07:11:54;66104.38;;;-143.09;100.00
5905;BME280;2978;42.012;24.880;2023-08-17T07:14:19;66104.38;;;-143.09;100.00
5905;BME280;2978;42.012;24.880;2023-08-17T07:16:45;66104.38;;;-143.09;100.00
5905;BME280;2978;42.012;24.880;2023-08-17T07:19:10;66104.38;;;-143.09;100.00
5905;BME280;2978;42.012;24.880;2023-08-17T07:21:37;66104.38;;;-143.09;100.00
5905;BME280;2978;42.012;24.880;2023-08-17T07:24:15;66104.38;;;-143.09;100.00
5905;BME280;2978;42.012;24.880;2023-08-17T07:26:41;66104.38;;;-143.09;100.00
5905;BME280;2978;42.012;24.880;2023-08-17T07:29:07;66104.38;;;-143.09;100.00
5905;BME280;2978;42.012;24.880;2023-08-17T07:31:32;66104.38;;;-143.09;100.00
5905;BME280;2978;42.012;24.880;2023-08-17T07:33:59;66104.38;;;-143.09;100.00
5905;BME280;2978;42.012;24.880;2023-08-17T07:36:25;66104.38;;;-143.09;100.00
5905;BME280;2978;42.012;24.880;2023-08-17T07:38:50;66104.38;;;-143.09;100.00
5905;BME280;2978;42.012;24.880;2023-08-17T07:41:16;66104.38;;;-143.09;100.00
5905;BME280;2978;42.012;24.880;2023-08-17T07:43:41;66104.38;;;-143.09;100.00
5905;BME280;2978;42.012;24.880;2023-08-17T07:46:06;66104.38;;;-143.09;100.00
5905;BME280;2978;42.012;24.880;2023-08-17T07:48:32;66104.38;;;-143.09;100.00
5905;BME280;2978;42.012;24.880;2023-08-17T07:50:59;66104.38;;;-143.09;100.00
5905;BME280;2978;42.012;24.880;2023-08-17T07:53:24;66104.38;;;-143.09;100.00
5905;BME280;2978;42.012;24.880;2023-08-17T07:55:50;66104.38;;;-143.09;100.00
5905;BME280;2978;42.012;24.880;2023-08-17T07:58:15;66104.38;;;-143.09;100.00
5905;BME280;2978;42.012;24.880;2023-08-17T08:00:41;66104.38;;;-143.09;100.00
5905;BME280;2978;42.012;24.880;2023-08-17T08:03:06;66104.38;;;-143.09;100.00
5905;BME280;2978;42.012;24.880;2023-08-17T08:05:31;66104.38;;;-143.09;100.00
5905;BME280;2978;42.012;24.880;2023-08-17T08:07:57;66104.38;;;-143.09;100.00
5905;BME280;2978;42.012;24.880;2023-08-17T08:10:22;66104.38;;;-143.09;100.00
5905;BME280;2978;42.012;24.880;2023-08-17T08:12:48;66104.38;;;-143.09;100.00
5905;BME280;2978;42.012;24.880;2023-08-17T08:15:13;66104.38;;;-143.09;100.00
5905;BME280;2978;42.012;24.880;2023-08-17T08:17:39;66104.38;;;-143.09;100.00
5905;BME280;2978;42.012;24.880;2023-08-17T08:20:05;66104.38;;;-143.09;100.00
5905;BME280;2978;42.012;24.880;2023-08-17T08:22:30;66104.38;;;-143.09;100.00
5905;BME280;2978;42.012;24.880;2023-08-17T08:24:56;66104.38;;;-143.09;100.00
5905;BME280;2978;42.012;24.880;2023-08-17T08:27:21;66104.38;;;-143.09;100.00
5905;BME280;2978;42.012;24.880;2023-08-17T08:29:47;66104.38;;;-143.09;100.00
5905;BME280;2978;42.012;24.880;2023-08-17T08:32:12;66104.38;;;-143.09;100.00
5905;BME280;2978;42.012;24.880;2023-08-17T08:34:38;66104.38;;;-143.09;100.00
5905;BME280;2978;42.012;24.880;2023-08-17T08:37:03;66104.38;;;-143.09;100.00
5905;BME280;2978;42.012;24.880;2023-08-17T08:39:29;66104.38;;;-143.09;100.00
5905;BME280;2978;42.012;24.880;2023-08-17T08:41:55;66104.38;;;-143.09;100.00
5905;BME280;2978;42.012;24.880;2023-08-17T08:44:20;66104.38;;;-143.09;100.00
5905;BME280;2978;42.012;24.880;2023-08-17T08:46:47;66104.38;;;-143.09;100.00
5905;BME280;2978;42.012;24.880;2023-08-17T08:49:18;66104.38;;;-143.09;100.00
5905;BME280;2978;42.012;24.880;2023-08-17T08:51:47;66104.38;;;-143.09;100.00
5905;BME280;2978;42.012;24.880;2023-08-17T08:54:21;66104.38;;;-143.09;100.00
5905;BME280;2978;42.012;24.880;2023-08-17T08:56:54;66104.38;;;-143.09;100.00
5905;BME280;2978;42.012;24.880;2023-08-17T08:59:21;66104.38;;;-143.09;100.00
5905;BME280;2978;42.012;24.880;2023-08-17T09:01:47;66104.38;;;-143.09;100.00
5905;BME280;2978;42.012;24.880;2023-08-17T09:04:13;66104.38;;;-143.09;100.00
5905;BME280;2978;42.012;24.880;2023-08-17T09:06:40;66104.38;;;-143.09;100.00
5905;BME280;2978;42.012;24.880;2023-08-17T09:09:07;66104.38;;;-143.09;100.00
5905;BME280;2978;42.012;24.880;2023-08-17T09:11:33;66104.38;;;-143.09;100.00
5905;BME280;2978;42.012;24.880;2023-08-17T09:13:58;66104.38;;;-143.09;100.00
5905;BME280;2978;42.012;24.880;2023-08-17T09:16:24;66104.38;;;-143.09;100.00
5905;BME280;2978;42.012;24.880;2023-08-17T09:18:49;66104.38;;;-143.09;100.00
5905;BME280;2978;42.012;24.880;2023-08-17T09:21:20;66104.38;;;-143.09;100.00
5905;BME280;2978;42.012;24.880;2023-08-17T09:23:53;66104.38;;;-143.09;100.00
5905;BME280;2978;42.012;24.880;2023-08-17T09:26:22;66104.38;;;-143.09;100.00
5905;BME280;2978;42.012;24.880;2023-08-17T09:28:49;66104.38;;;-143.09;100.00
5905;BME280;2978;42.012;24.880;2023-08-17T09:31:15;66104.38;;;-143.09;100.00
5905;BME280;2978;42.012;24.880;2023-08-17T09:33:41;66104.38;;;-143.09;100.00
5905;BME280;2978;42.012;24.880;2023-08-17T09:36:06;66104.38;;;-143.09;100.00
5905;BME280;2978;42.012;24.880;2023-08-17T09:38:32;66104.38;;;-143.09;100.00
5905;BME280;2978;42.012;24.880;2023-08-17T09:40:57;66104.38;;;-143.09;100.00
5905;BME280;2978;42.012;24.880;2023-08-17T09:43:24;66104.38;;;-143.09;100.00
5905;BME280;2978;42.012;24.880;2023-08-17T09:45:54;66104.38;;;-143.09;100.00
5905;BME280;2978;42.012;24.880;2023-08-17T09:48:20;66104.38;;;-143.09;100.00
5905;BME280;2978;42.012;24.880;2023-08-17T09:50:47;66104.38;;;-143.09;100.00
5905;BME280;2978;42.012;24.880;2023-08-17T09:53:14;66104.38;;;-143.09;100.00
5905;BME280;2978;42.012;24.880;2023-08-17T09:55:41;66104.38;;;-143.09;100.00
5905;BME280;2978;42.012;24.880;2023-08-17T09:58:07;66104.38;;;-143.09;100.00
5905;BME280;2978;42.012;24.880;2023-08-17T10:00:34;66104.38;;;-143.09;100.00
5905;BME280;2978;42.012;24.880;2023-08-17T10:03:02;66104.38;;;-143.09;100.00
5905;BME280;2978;42.012;24.880;2023-08-17T10:05:35;66104.38;;;-143.09;100.00
5905;BME280;2978;42.012;24.880;2023-08-17T10:08:03;66104.38;;;-143.09;100.00
5905;BME280;2978;42.012;24.880;2023-08-17T10:10:31;66104.38;;;-143.09;100.00
5905;BME280;2978;42.012;24.880;2023-08-17T10:13:08;66104.38;;;-143.09;100.00
5905;BME280;2978;42.012;24.880;2023-08-17T10:15:37;66104.38;;;-143.09;100.00
5905;BME280;2978;42.012;24.880;2023-08-17T10:18:20;66104.38;;;-143.09;100.00
5905;BME280;2978;42.012;24.880;2023-08-17T10:21:13;66104.38;;;-143.09;100.00
5905;BME280;2978;42.012;24.880;2023-08-17T10:23:41;66104.38;;;-143.09;100.00
5905;BME280;2978;42.012;24.880;2023-08-17T10:26:08;66104.38;;;-143.09;100.00
5905;BME280;2978;42.012;24.880;2023-08-17T10:28:34;66104.38;;;-143.09;100.00
5905;BME280;2978;42.012;24.880;2023-08-17T10:31:00;66104.38;;;-143.09;100.00
5905;BME280;2978;42.012;24.880;2023-08-17T10:33:26;66104.38;;;-143.09;100.00
5905;BME280;2978;42.012;24.880;2023-08-17T10:35:53;66104.38;;;-143.09;100.00
5905;BME280;2978;42.012;24.880;2023-08-17T10:38:19;66104.38;;;-143.09;100.00
5905;BME280;2978;42.012;24.880;2023-08-17T10:40:44;66104.38;;;-143.09;100.00
5905;BME280;2978;42.012;24.880;2023-08-17T10:43:10;66104.38;;;-143.09;100.00
5905;BME280;2978;42.012;24.880;2023-08-17T10:45:37;66104.38;;;-143.09;100.00
5905;BME280;2978;42.012;24.880;2023-08-17T10:50:38;66104.38;;;-143.09;100.00
5905;BME280;2978;42.012;24.880;2023-08-17T10:53:09;66104.38;;;-143.09;100.00
5905;BME280;2978;42.012;24.880;2023-08-17T10:55:37;66104.38;;;-143.09;100.00
5905;BME280;2978;42.012;24.880;2023-08-17T10:58:02;66104.38;;;-143.09;100.00
5905;BME280;2978;42.012;24.880;2023-08-17T11:00:36;66104.38;;;-143.09;100.00
5905;BME280;2978;42.012;24.880;2023-08-17T11:03:07;66104.38;;;-143.09;100.00
5905;BME280;2978;42.012;24.880;2023-08-17T11:08:04;66104.38;;;-143.09;100.00
5905;BME280;2978;42.012;24.880;2023-08-17T11:10:30;66104.38;;;-143.09;100.00
5905;BME280;2978;42.012;24.880;2023-08-17T11:12:59;66104.38;;;-143.09;100.00
5905;BME280;2978;42.012;24.880;2023-08-17T11:15:25;66104.38;;;-143.09;100.00
5905;BME280;2978;42.012;24.880;2023-08-17T11:17:52;66104.38;;;-143.09;100.00
5905;BME280;2978;42.012;24.880;2023-08-17T11:20:18;66104.38;;;-143.09;100.00
5905;BME280;2978;42.012;24.880;2023-08-17T11:22:45;66104.38;;;-143.09;100.00
5905;BME280;2978;42.012;24.880;2023-08-17T11:25:11;66104.38;;;-143.09;100.00
5905;BME280;2978;42.012;24.880;2023-08-17T11:27:36;66104.38;;;-143.09;100.00
5905;BME280;2978;42.012;24.880;2023-08-17T11:30:02;66104.38;;;-143.09;100.00
5905;BME280;2978;42.012;24.880;2023-08-17T11:32:28;66104.38;;;-143.09;100.00
5905;BME280;2978;42.012;24.880;2023-08-17T11:34:53;66104.38;;;-143.09;100.00
5905;BME280;2978;42.012;24.880;2023-08-17T11:37:18;66104.38;;;-143.09;100.00
5905;BME280;2978;42.012;24.880;2023-08-17T11:39:44;66104.38;;;-143.09;100.00
5905;BME280;2978;42.012;24.880;2023-08-17T11:42:09;66104.38;;;-143.09;100.00
5905;BME280;2978;42.012;24.880;2023-08-17T11:44:35;66104.38;;;-143.09;100.00
5905;BME280;2978;42.012;24.880;2023-08-17T11:47:01;66104.38;;;-143.09;100.00
5905;BME280;2978;42.012;24.880;2023-08-17T11:49:30;66104.38;;;-143.09;100.00
5905;BME280;2978;42.012;24.880;2023-08-17T11:51:56;66104.38;;;-143.09;100.00
5905;BME280;2978;42.012;24.880;2023-08-17T11:54:22;66104.38;;;-143.09;100.00
5905;BME280;2978;42.012;24.880;2023-08-17T11:56:48;66104.38;;;-143.09;100.00
5905;BME280;2978;42.012;24.880;2023-08-17T11:59:13;66104.38;;;-143.09;100.00
5905;BME280;2978;42.012;24.880;2023-08-17T12:01:40;66104.38;;;-143.09;100.00
5905;BME280;2978;42.012;24.880;2023-08-17T12:04:06;66104.38;;;-143.09;100.00
5905;BME280;2978;42.012;24.880;2023-08-17T12:06:32;66104.38;;;-143.09;100.00
5905;BME280;2978;42.012;24.880;2023-08-17T12:08:57;66104.38;;;-143.09;100.00
5905;BME280;2978;42.012;24.880;2023-08-17T12:11:26;66104.38;;;-143.09;100.00
5905;BME280;2978;42.012;24.880;2023-08-17T12:13:52;66104.38;;;-143.09;100.00
5905;BME280;2978;42.012;24.880;2023-08-17T12:16:19;66104.38;;;-143.09;100.00
5905;BME280;2978;42.012;24.880;2023-08-17T12:18:50;66104.38;;;-143.09;100.00
5905;BME280;2978;42.012;24.880;2023-08-17T12:21:19;66104.38;;;-143.09;100.00
5905;BME280;2978;42.012;24.880;2023-08-17T12:23:45;66104.38;;;-143.09;100.00
5905;BME280;2978;42.012;24.880;2023-08-17T12:26:18;66104.38;;;-143.09;100.00
5905;BME280;2978;42.012;24.880;2023-08-17T12:28:44;66104.38;;;-143.09;100.00
5905;BME280;2978;42.012;24.880;2023-08-17T12:31:10;66104.38;;;-143.09;100.00
5905;BME280;2978;42.012;24.880;2023-08-17T12:33:35;66104.38;;;-143.09;100.00
5905;BME280;2978;42.012;24.880;2023-08-17T12:36:00;66104.38;;;-143.09;100.00
5905;BME280;2978;42.012;24.880;2023-08-17T12:38:26;66104.38;;;-143.09;100.00
5905;BME280;2978;42.012;24.880;2023-08-17T12:40:51;66104.38;;;-143.09;100.00
5905;BME280;2978;42.012;24.880;2023-08-17T12:43:17;66104.38;;;-143.09;100.00
5905;BME280;2978;42.012;24.880;2023-08-17T12:45:42;66104.38;;;-143.09;100.00